sensor_id;sensor_type;location;lat;lon;timestamp;temperature;humidity
4107;DHT22;21906;50.812;7.132;2022-11-13T00:01:15;10.10;71.60
4107;DHT22;21906;50.812;7.132;2022-11-13T00:03:41;10.10;71.70
4107;DHT22;21906;50.812;7.132;2022-11-13T00:06:07;10.20;71.70
4107;DHT22;21906;50.812;7.132;2022-11-13T00:08:33;10.20;71.60
4107;DHT22;21906;50.812;7.132;2022-11-13T00:11:01;10.20;71.60
4107;DHT22;21906;50.812;7.132;2022-11-13T00:13:27;10.20;71.60
4107;DHT22;21906;50.812;7.132;2022-11-13T00:16:03;10.20;71.60
4107;DHT22;21906;50.812;7.132;2022-11-13T00:18:32;10.20;71.70
4107;DHT22;21906;50.812;7.132;2022-11-13T00:21:07;10.20;71.70
4107;DHT22;21906;50.812;7.132;2022-11-13T00:23:34;10.10;71.80
4107;DHT22;21906;50.812;7.132;2022-11-13T00:26:05;10.10;72.00
4107;DHT22;21906;50.812;7.132;2022-11-13T00:28:30;10.10;72.00
4107;DHT22;21906;50.812;7.132;2022-11-13T00:31:00;10.10;72.20
4107;DHT22;21906;50.812;7.132;2022-11-13T00:33:27;10.00;72.30
4107;DHT22;21906;50.812;7.132;2022-11-13T00:35:52;10.00;72.30
4107;DHT22;21906;50.812;7.132;2022-11-13T00:38:18;10.00;72.40
4107;DHT22;21906;50.812;7.132;2022-11-13T00:40:44;9.90;72.60
4107;DHT22;21906;50.812;7.132;2022-11-13T00:43:09;10.00;72.70
4107;DHT22;21906;50.812;7.132;2022-11-13T00:45:35;9.90;72.90
4107;DHT22;21906;50.812;7.132;2022-11-13T00:48:01;9.90;73.00
4107;DHT22;21906;50.812;7.132;2022-11-13T00:50:27;9.90;72.80
4107;DHT22;21906;50.812;7.132;2022-11-13T00:52:52;9.90;72.80
4107;DHT22;21906;50.812;7.132;2022-11-13T00:55:18;9.90;72.70
4107;DHT22;21906;50.812;7.132;2022-11-13T00:57:44;9.80;72.70
4107;DHT22;21906;50.812;7.132;2022-11-13T01:00:10;9.80;72.60
4107;DHT22;21906;50.812;7.132;2022-11-13T01:02:35;9.80;72.40
4107;DHT22;21906;50.812;7.132;2022-11-13T01:05:01;9.70;72.40
4107;DHT22;21906;50.812;7.132;2022-11-13T01:07:27;9.70;72.50
4107;DHT22;21906;50.812;7.132;2022-11-13T01:09:52;9.70;72.60
4107;DHT22;21906;50.812;7.132;2022-11-13T01:12:18;9.70;72.40
4107;DHT22;21906;50.812;7.132;2022-11-13T01:14:44;9.60;72.40
4107;DHT22;21906;50.812;7.132;2022-11-13T01:17:09;9.60;72.60
4107;DHT22;21906;50.812;7.132;2022-11-13T01:19:35;9.50;72.40
4107;DHT22;21906;50.812;7.132;2022-11-13T01:22:01;9.40;72.50
4107;DHT22;21906;50.812;7.132;2022-11-13T01:24:26;9.40;72.60
4107;DHT22;21906;50.812;7.132;2022-11-13T01:26:52;9.40;72.70
4107;DHT22;21906;50.812;7.132;2022-11-13T01:29:17;9.30;72.70
4107;DHT22;21906;50.812;7.132;2022-11-13T01:31:43;9.30;72.80
4107;DHT22;21906;50.812;7.132;2022-11-13T01:34:09;9.30;72.90
4107;DHT22;21906;50.812;7.132;2022-11-13T01:36:34;9.30;73.00
4107;DHT22;21906;50.812;7.132;2022-11-13T01:39:00;9.30;73.10
4107;DHT22;21906;50.812;7.132;2022-11-13T01:41:31;9.30;73.00
4107;DHT22;21906;50.812;7.132;2022-11-13T01:43:58;9.30;73.00
4107;DHT22;21906;50.812;7.132;2022-11-13T01:51:30;9.30;72.70
4107;DHT22;21906;50.812;7.132;2022-11-13T01:53:57;9.30;72.70
4107;DHT22;21906;50.812;7.132;2022-11-13T01:56:24;9.30;72.50
4107;DHT22;21906;50.812;7.132;2022-11-13T01:58:54;9.30;72.70
4107;DHT22;21906;50.812;7.132;2022-11-13T02:01:22;9.30;72.80
4107;DHT22;21906;50.812;7.132;2022-11-13T02:03:47;9.30;72.80
4107;DHT22;21906;50.812;7.132;2022-11-13T02:06:13;9.20;72.70
4107;DHT22;21906;50.812;7.132;2022-11-13T02:08:39;9.20;72.70
4107;DHT22;21906;50.812;7.132;2022-11-13T02:11:05;9.20;72.80
4107;DHT22;21906;50.812;7.132;2022-11-13T02:13:31;9.20;72.90
4107;DHT22;21906;50.812;7.132;2022-11-13T02:15:58;9.20;72.80
4107;DHT22;21906;50.812;7.132;2022-11-13T02:18:24;9.10;72.90
4107;DHT22;21906;50.812;7.132;2022-11-13T02:23:32;9.10;72.80
4107;DHT22;21906;50.812;7.132;2022-11-13T02:26:01;9.10;72.80
4107;DHT22;21906;50.812;7.132;2022-11-13T02:28:27;9.10;72.70
4107;DHT22;21906;50.812;7.132;2022-11-13T02:30:53;9.00;72.70
4107;DHT22;21906;50.812;7.132;2022-11-13T02:33:29;9.10;72.60
4107;DHT22;21906;50.812;7.132;2022-11-13T02:35:55;9.00;72.60
4107;DHT22;21906;50.812;7.132;2022-11-13T02:38:21;8.80;73.00
4107;DHT22;21906;50.812;7.132;2022-11-13T02:43:22;8.80;73.40
4107;DHT22;21906;50.812;7.132;2022-11-13T02:45:47;8.80;73.30
4107;DHT22;21906;50.812;7.132;2022-11-13T02:48:13;8.80;73.10
4107;DHT22;21906;50.812;7.132;2022-11-13T02:50:39;8.90;72.90
4107;DHT22;21906;50.812;7.132;2022-11-13T02:53:05;8.90;72.80
4107;DHT22;21906;50.812;7.132;2022-11-13T02:55:31;8.90;72.70
4107;DHT22;21906;50.812;7.132;2022-11-13T02:57:57;8.90;72.50
4107;DHT22;21906;50.812;7.132;2022-11-13T03:00:23;8.90;72.50
4107;DHT22;21906;50.812;7.132;2022-11-13T03:02:48;8.90;72.40
4107;DHT22;21906;50.812;7.132;2022-11-13T03:05:14;8.90;72.30
4107;DHT22;21906;50.812;7.132;2022-11-13T03:07:40;8.90;72.30
4107;DHT22;21906;50.812;7.132;2022-11-13T03:10:07;8.90;72.30
4107;DHT22;21906;50.812;7.132;2022-11-13T03:12:33;8.90;72.40
4107;DHT22;21906;50.812;7.132;2022-11-13T03:14:59;8.80;72.50
4107;DHT22;21906;50.812;7.132;2022-11-13T03:17:24;8.70;72.60
4107;DHT22;21906;50.812;7.132;2022-11-13T03:19:50;8.70;72.70
4107;DHT22;21906;50.812;7.132;2022-11-13T03:22:16;8.60;72.60
4107;DHT22;21906;50.812;7.132;2022-11-13T03:24:41;8.60;72.60
4107;DHT22;21906;50.812;7.132;2022-11-13T03:27:07;8.50;72.60
4107;DHT22;21906;50.812;7.132;2022-11-13T03:29:32;8.40;72.70
4107;DHT22;21906;50.812;7.132;2022-11-13T03:31:58;8.40;72.80
4107;DHT22;21906;50.812;7.132;2022-11-13T03:34:24;8.30;73.00
4107;DHT22;21906;50.812;7.132;2022-11-13T03:36:50;8.30;73.10
4107;DHT22;21906;50.812;7.132;2022-11-13T03:39:15;8.30;73.00
4107;DHT22;21906;50.812;7.132;2022-11-13T03:41:41;8.20;72.90
4107;DHT22;21906;50.812;7.132;2022-11-13T03:44:06;8.30;72.70
4107;DHT22;21906;50.812;7.132;2022-11-13T03:46:32;8.20;72.60
4107;DHT22;21906;50.812;7.132;2022-11-13T03:48:58;8.20;72.60
4107;DHT22;21906;50.812;7.132;2022-11-13T03:51:23;8.20;72.70
4107;DHT22;21906;50.812;7.132;2022-11-13T03:53:49;8.20;72.40
4107;DHT22;21906;50.812;7.132;2022-11-13T03:56:15;8.10;72.70
4107;DHT22;21906;50.812;7.132;2022-11-13T03:58:40;8.10;72.50
4107;DHT22;21906;50.812;7.132;2022-11-13T04:01:06;8.10;72.60
4107;DHT22;21906;50.812;7.132;2022-11-13T04:03:32;8.10;72.50
4107;DHT22;21906;50.812;7.132;2022-11-13T04:05:57;8.00;72.50
4107;DHT22;21906;50.812;7.132;2022-11-13T04:08:23;8.00;72.60
4107;DHT22;21906;50.812;7.132;2022-11-13T04:10:49;8.00;72.60
4107;DHT22;21906;50.812;7.132;2022-11-13T04:13:14;8.00;72.70
4107;DHT22;21906;50.812;7.132;2022-11-13T04:15:40;8.00;72.70
4107;DHT22;21906;50.812;7.132;2022-11-13T04:18:06;8.00;72.40
4107;DHT22;21906;50.812;7.132;2022-11-13T04:20:31;7.90;72.40
4107;DHT22;21906;50.812;7.132;2022-11-13T04:22:57;7.90;72.70
4107;DHT22;21906;50.812;7.132;2022-11-13T04:25:23;7.90;72.60
4107;DHT22;21906;50.812;7.132;2022-11-13T04:27:51;7.90;72.60
4107;DHT22;21906;50.812;7.132;2022-11-13T04:30:17;7.90;72.80
4107;DHT22;21906;50.812;7.132;2022-11-13T04:32:43;7.90;73.00
4107;DHT22;21906;50.812;7.132;2022-11-13T04:35:09;7.90;73.10
4107;DHT22;21906;50.812;7.132;2022-11-13T04:37:36;7.90;73.10
4107;DHT22;21906;50.812;7.132;2022-11-13T04:40:02;7.90;73.00
4107;DHT22;21906;50.812;7.132;2022-11-13T04:42:28;7.80;73.10
4107;DHT22;21906;50.812;7.132;2022-11-13T04:45:12;7.80;73.10
4107;DHT22;21906;50.812;7.132;2022-11-13T04:47:37;7.70;73.00
4107;DHT22;21906;50.812;7.132;2022-11-13T04:50:03;7.70;73.20
4107;DHT22;21906;50.812;7.132;2022-11-13T04:52:29;7.70;73.20
4107;DHT22;21906;50.812;7.132;2022-11-13T04:54:55;7.60;73.30
4107;DHT22;21906;50.812;7.132;2022-11-13T04:57:22;7.60;73.50
4107;DHT22;21906;50.812;7.132;2022-11-13T04:59:47;7.50;73.30
4107;DHT22;21906;50.812;7.132;2022-11-13T05:02:13;7.60;73.40
4107;DHT22;21906;50.812;7.132;2022-11-13T05:04:38;7.50;73.40
4107;DHT22;21906;50.812;7.132;2022-11-13T05:07:04;7.50;73.40
4107;DHT22;21906;50.812;7.132;2022-11-13T05:09:30;7.60;73.20
4107;DHT22;21906;50.812;7.132;2022-11-13T05:11:55;7.50;73.50
4107;DHT22;21906;50.812;7.132;2022-11-13T05:14:21;7.40;73.50
4107;DHT22;21906;50.812;7.132;2022-11-13T05:16:47;7.50;73.40
4107;DHT22;21906;50.812;7.132;2022-11-13T05:19:15;7.40;73.60
4107;DHT22;21906;50.812;7.132;2022-11-13T05:21:41;7.50;73.80
4107;DHT22;21906;50.812;7.132;2022-11-13T05:24:09;7.60;73.70
4107;DHT22;21906;50.812;7.132;2022-11-13T05:26:37;7.60;73.60
4107;DHT22;21906;50.812;7.132;2022-11-13T05:29:03;7.60;73.50
4107;DHT22;21906;50.812;7.132;2022-11-13T05:31:28;7.60;73.30
4107;DHT22;21906;50.812;7.132;2022-11-13T05:33:54;7.70;73.10
4107;DHT22;21906;50.812;7.132;2022-11-13T05:36:21;7.70;73.00
4107;DHT22;21906;50.812;7.132;2022-11-13T05:38:47;7.70;73.00
4107;DHT22;21906;50.812;7.132;2022-11-13T05:41:15;7.60;73.00
4107;DHT22;21906;50.812;7.132;2022-11-13T05:43:41;7.60;72.90
4107;DHT22;21906;50.812;7.132;2022-11-13T05:48:33;7.60;72.90
4107;DHT22;21906;50.812;7.132;2022-11-13T05:51:02;7.60;72.80
4107;DHT22;21906;50.812;7.132;2022-11-13T05:53:29;7.60;72.70
4107;DHT22;21906;50.812;7.132;2022-11-13T05:55:59;7.60;72.50
4107;DHT22;21906;50.812;7.132;2022-11-13T05:58:25;7.60;72.30
4107;DHT22;21906;50.812;7.132;2022-11-13T06:00:51;7.60;72.00
4107;DHT22;21906;50.812;7.132;2022-11-13T06:03:17;7.50;72.10
4107;DHT22;21906;50.812;7.132;2022-11-13T06:05:43;7.50;72.10
4107;DHT22;21906;50.812;7.132;2022-11-13T06:08:08;7.50;72.10
4107;DHT22;21906;50.812;7.132;2022-11-13T06:10:34;7.50;72.10
4107;DHT22;21906;50.812;7.132;2022-11-13T06:12:59;7.40;72.20
4107;DHT22;21906;50.812;7.132;2022-11-13T06:15:25;7.40;72.20
4107;DHT22;21906;50.812;7.132;2022-11-13T06:17:50;7.40;72.20
4107;DHT22;21906;50.812;7.132;2022-11-13T06:20:16;7.40;72.20
4107;DHT22;21906;50.812;7.132;2022-11-13T06:22:42;7.30;72.20
4107;DHT22;21906;50.812;7.132;2022-11-13T06:25:07;7.30;72.20
4107;DHT22;21906;50.812;7.132;2022-11-13T06:27:33;7.30;72.10
4107;DHT22;21906;50.812;7.132;2022-11-13T06:29:59;7.30;72.10
4107;DHT22;21906;50.812;7.132;2022-11-13T06:32:24;7.30;72.20
4107;DHT22;21906;50.812;7.132;2022-11-13T06:34:50;7.30;72.20
4107;DHT22;21906;50.812;7.132;2022-11-13T06:37:15;7.20;72.30
4107;DHT22;21906;50.812;7.132;2022-11-13T06:39:41;7.10;72.40
4107;DHT22;21906;50.812;7.132;2022-11-13T06:42:06;7.10;72.40
4107;DHT22;21906;50.812;7.132;2022-11-13T06:44:32;7.10;72.40
4107;DHT22;21906;50.812;7.132;2022-11-13T06:46:58;7.10;72.40
4107;DHT22;21906;50.812;7.132;2022-11-13T06:49:23;7.10;72.50
4107;DHT22;21906;50.812;7.132;2022-11-13T06:51:49;7.00;72.60
4107;DHT22;21906;50.812;7.132;2022-11-13T06:54:15;6.90;72.70
4107;DHT22;21906;50.812;7.132;2022-11-13T06:56:40;7.00;72.80
4107;DHT22;21906;50.812;7.132;2022-11-13T06:59:10;7.00;72.60
4107;DHT22;21906;50.812;7.132;2022-11-13T07:01:35;7.10;72.60
4107;DHT22;21906;50.812;7.132;2022-11-13T07:04:01;7.10;72.30
4107;DHT22;21906;50.812;7.132;2022-11-13T07:06:28;7.20;72.20
4107;DHT22;21906;50.812;7.132;2022-11-13T07:08:54;7.10;72.20
4107;DHT22;21906;50.812;7.132;2022-11-13T07:11:21;7.20;72.10
4107;DHT22;21906;50.812;7.132;2022-11-13T07:13:47;7.10;72.30
4107;DHT22;21906;50.812;7.132;2022-11-13T07:16:14;7.20;72.30
4107;DHT22;21906;50.812;7.132;2022-11-13T07:18:40;7.20;72.20
4107;DHT22;21906;50.812;7.132;2022-11-13T07:21:08;7.20;72.00
4107;DHT22;21906;50.812;7.132;2022-11-13T07:23:35;7.30;72.20
4107;DHT22;21906;50.812;7.132;2022-11-13T07:26:02;7.30;72.20
4107;DHT22;21906;50.812;7.132;2022-11-13T07:28:28;7.30;72.10
4107;DHT22;21906;50.812;7.132;2022-11-13T07:30:57;7.30;72.00
4107;DHT22;21906;50.812;7.132;2022-11-13T07:33:23;7.40;72.00
4107;DHT22;21906;50.812;7.132;2022-11-13T07:35:48;7.40;72.00
4107;DHT22;21906;50.812;7.132;2022-11-13T07:38:14;7.50;72.00
4107;DHT22;21906;50.812;7.132;2022-11-13T07:40:40;7.60;71.70
4107;DHT22;21906;50.812;7.132;2022-11-13T07:43:05;7.50;71.40
4107;DHT22;21906;50.812;7.132;2022-11-13T07:45:31;7.60;71.60
4107;DHT22;21906;50.812;7.132;2022-11-13T07:47:58;7.60;71.60
4107;DHT22;21906;50.812;7.132;2022-11-13T07:50:30;7.70;71.40
4107;DHT22;21906;50.812;7.132;2022-11-13T07:52:57;7.80;71.30
4107;DHT22;21906;50.812;7.132;2022-11-13T07:55:23;7.90;71.10
4107;DHT22;21906;50.812;7.132;2022-11-13T07:57:49;7.90;70.70
4107;DHT22;21906;50.812;7.132;2022-11-13T08:00:15;8.00;70.70
4107;DHT22;21906;50.812;7.132;2022-11-13T08:02:42;8.10;70.70
4107;DHT22;21906;50.812;7.132;2022-11-13T08:05:08;8.10;71.10
4107;DHT22;21906;50.812;7.132;2022-11-13T08:07:34;8.20;70.80
4107;DHT22;21906;50.812;7.132;2022-11-13T08:10:01;8.20;70.30
4107;DHT22;21906;50.812;7.132;2022-11-13T08:12:27;8.30;70.20
4107;DHT22;21906;50.812;7.132;2022-11-13T08:14:53;8.40;70.10
4107;DHT22;21906;50.812;7.132;2022-11-13T08:17:19;8.40;70.00
4107;DHT22;21906;50.812;7.132;2022-11-13T08:19:44;8.50;69.90
4107;DHT22;21906;50.812;7.132;2022-11-13T08:22:10;8.60;69.90
4107;DHT22;21906;50.812;7.132;2022-11-13T08:24:35;8.60;69.60
4107;DHT22;21906;50.812;7.132;2022-11-13T08:27:01;8.60;69.60
4107;DHT22;21906;50.812;7.132;2022-11-13T08:29:27;8.60;69.70
4107;DHT22;21906;50.812;7.132;2022-11-13T08:31:52;8.70;69.70
4107;DHT22;21906;50.812;7.132;2022-11-13T08:34:18;8.80;69.50
4107;DHT22;21906;50.812;7.132;2022-11-13T08:36:44;8.90;69.40
4107;DHT22;21906;50.812;7.132;2022-11-13T08:39:09;9.00;69.30
4107;DHT22;21906;50.812;7.132;2022-11-13T08:41:35;9.00;68.90
4107;DHT22;21906;50.812;7.132;2022-11-13T08:44:00;9.10;68.70
4107;DHT22;21906;50.812;7.132;2022-11-13T08:46:26;9.10;68.40
4107;DHT22;21906;50.812;7.132;2022-11-13T08:48:52;9.20;68.20
4107;DHT22;21906;50.812;7.132;2022-11-13T08:51:18;9.30;67.70
4107;DHT22;21906;50.812;7.132;2022-11-13T08:53:43;9.40;67.30
4107;DHT22;21906;50.812;7.132;2022-11-13T08:56:09;9.40;67.40
4107;DHT22;21906;50.812;7.132;2022-11-13T08:58:35;9.50;67.30
4107;DHT22;21906;50.812;7.132;2022-11-13T09:01:01;9.50;67.00
4107;DHT22;21906;50.812;7.132;2022-11-13T09:03:27;9.70;66.90
4107;DHT22;21906;50.812;7.132;2022-11-13T09:05:53;9.80;66.60
4107;DHT22;21906;50.812;7.132;2022-11-13T09:08:19;9.80;66.00
4107;DHT22;21906;50.812;7.132;2022-11-13T09:10:44;9.90;65.80
4107;DHT22;21906;50.812;7.132;2022-11-13T09:13:10;10.00;65.50
4107;DHT22;21906;50.812;7.132;2022-11-13T09:15:37;10.20;65.50
4107;DHT22;21906;50.812;7.132;2022-11-13T09:18:04;10.20;65.80
4107;DHT22;21906;50.812;7.132;2022-11-13T09:20:31;10.30;65.90
4107;DHT22;21906;50.812;7.132;2022-11-13T09:25:23;10.50;66.20
4107;DHT22;21906;50.812;7.132;2022-11-13T09:27:57;10.60;65.80
4107;DHT22;21906;50.812;7.132;2022-11-13T09:30:23;10.70;65.50
4107;DHT22;21906;50.812;7.132;2022-11-13T09:32:54;10.70;65.30
4107;DHT22;21906;50.812;7.132;2022-11-13T09:35:26;10.80;65.10
4107;DHT22;21906;50.812;7.132;2022-11-13T09:38:08;10.90;65.00
4107;DHT22;21906;50.812;7.132;2022-11-13T09:43:32;11.00;65.00
4107;DHT22;21906;50.812;7.132;2022-11-13T09:46:19;11.20;65.20
4107;DHT22;21906;50.812;7.132;2022-11-13T09:48:52;11.30;65.30
4107;DHT22;21906;50.812;7.132;2022-11-13T09:51:26;11.40;65.10
4107;DHT22;21906;50.812;7.132;2022-11-13T09:53:52;11.40;65.10
4107;DHT22;21906;50.812;7.132;2022-11-13T09:59:33;11.60;64.70
4107;DHT22;21906;50.812;7.132;2022-11-13T10:12:27;12.20;63.70
4107;DHT22;21906;50.812;7.132;2022-11-13T10:14:56;12.30;63.60
4107;DHT22;21906;50.812;7.132;2022-11-13T10:17:47;12.40;63.50
4107;DHT22;21906;50.812;7.132;2022-11-13T10:20:15;12.50;62.80
4107;DHT22;21906;50.812;7.132;2022-11-13T10:23:19;12.70;62.70
4107;DHT22;21906;50.812;7.132;2022-11-13T10:25:46;12.90;62.10
4107;DHT22;21906;50.812;7.132;2022-11-13T10:28:24;12.90;61.50
4107;DHT22;21906;50.812;7.132;2022-11-13T10:30:50;13.00;61.90
4107;DHT22;21906;50.812;7.132;2022-11-13T10:33:19;13.10;60.70
4107;DHT22;21906;50.812;7.132;2022-11-13T10:36:07;13.20;60.40
4107;DHT22;21906;50.812;7.132;2022-11-13T10:38:44;13.30;60.20
4107;DHT22;21906;50.812;7.132;2022-11-13T10:41:17;13.40;60.10
4107;DHT22;21906;50.812;7.132;2022-11-13T10:44:00;13.60;60.30
4107;DHT22;21906;50.812;7.132;2022-11-13T10:46:28;13.70;60.00
4107;DHT22;21906;50.812;7.132;2022-11-13T10:48:56;13.80;61.10
4107;DHT22;21906;50.812;7.132;2022-11-13T10:51:28;14.00;60.70
4107;DHT22;21906;50.812;7.132;2022-11-13T10:53:54;14.10;60.10
4107;DHT22;21906;50.812;7.132;2022-11-13T11:01:35;14.60;58.00
4107;DHT22;21906;50.812;7.132;2022-11-13T11:04:05;14.80;56.90
4107;DHT22;21906;50.812;7.132;2022-11-13T11:06:35;14.90;56.60
4107;DHT22;21906;50.812;7.132;2022-11-13T11:12:10;15.20;56.70
4107;DHT22;21906;50.812;7.132;2022-11-13T11:17:49;15.50;56.60
4107;DHT22;21906;50.812;7.132;2022-11-13T11:20:34;15.70;56.30
4107;DHT22;21906;50.812;7.132;2022-11-13T11:25:58;15.90;55.30
4107;DHT22;21906;50.812;7.132;2022-11-13T11:30:56;16.20;53.70
4107;DHT22;21906;50.812;7.132;2022-11-13T11:33:50;16.30;53.20
4107;DHT22;21906;50.812;7.132;2022-11-13T11:36:40;16.40;51.00
4107;DHT22;21906;50.812;7.132;2022-11-13T11:44:51;16.70;52.50
4107;DHT22;21906;50.812;7.132;2022-11-13T11:47:17;16.80;52.00
4107;DHT22;21906;50.812;7.132;2022-11-13T11:49:44;16.90;51.10
4107;DHT22;21906;50.812;7.132;2022-11-13T11:58:02;17.20;50.00
4107;DHT22;21906;50.812;7.132;2022-11-13T12:00:31;17.10;49.40
4107;DHT22;21906;50.812;7.132;2022-11-13T12:09:08;17.40;49.20
4107;DHT22;21906;50.812;7.132;2022-11-13T12:11:56;17.50;49.80
4107;DHT22;21906;50.812;7.132;2022-11-13T12:14:45;17.50;49.50
4107;DHT22;21906;50.812;7.132;2022-11-13T12:26:09;17.90;50.00
4107;DHT22;21906;50.812;7.132;2022-11-13T12:29:42;18.00;49.10
4107;DHT22;21906;50.812;7.132;2022-11-13T12:34:36;18.30;47.50
4107;DHT22;21906;50.812;7.132;2022-11-13T12:37:09;18.40;47.90
4107;DHT22;21906;50.812;7.132;2022-11-13T12:40:04;18.40;47.20
4107;DHT22;21906;50.812;7.132;2022-11-13T12:42:47;18.50;45.80
4107;DHT22;21906;50.812;7.132;2022-11-13T12:48:19;18.60;45.20
4107;DHT22;21906;50.812;7.132;2022-11-13T12:51:08;18.70;46.60
4107;DHT22;21906;50.812;7.132;2022-11-13T12:53:57;18.90;45.80
4107;DHT22;21906;50.812;7.132;2022-11-13T12:59:24;19.10;45.00
4107;DHT22;21906;50.812;7.132;2022-11-13T13:02:27;19.20;45.30
4107;DHT22;21906;50.812;7.132;2022-11-13T13:05:36;19.40;45.10
4107;DHT22;21906;50.812;7.132;2022-11-13T13:16:42;19.70;44.20
4107;DHT22;21906;50.812;7.132;2022-11-13T13:19:30;19.80;43.90
4107;DHT22;21906;50.812;7.132;2022-11-13T13:21:57;19.80;41.60
4107;DHT22;21906;50.812;7.132;2022-11-13T13:24:44;19.90;42.70
4107;DHT22;21906;50.812;7.132;2022-11-13T13:27:27;19.90;43.20
4107;DHT22;21906;50.812;7.132;2022-11-13T13:29:53;20.00;41.50
4107;DHT22;21906;50.812;7.132;2022-11-13T13:32:33;19.90;41.80
4107;DHT22;21906;50.812;7.132;2022-11-13T13:35:14;20.00;41.80
4107;DHT22;21906;50.812;7.132;2022-11-13T13:37:55;20.00;42.00
4107;DHT22;21906;50.812;7.132;2022-11-13T13:41:05;20.00;41.90
4107;DHT22;21906;50.812;7.132;2022-11-13T13:43:53;20.10;42.20
4107;DHT22;21906;50.812;7.132;2022-11-13T13:46:25;20.10;42.10
4107;DHT22;21906;50.812;7.132;2022-11-13T13:49:00;20.30;42.30
4107;DHT22;21906;50.812;7.132;2022-11-13T13:51:33;20.40;41.70
4107;DHT22;21906;50.812;7.132;2022-11-13T13:54:05;20.40;41.20
4107;DHT22;21906;50.812;7.132;2022-11-13T13:56:32;20.30;41.00
4107;DHT22;21906;50.812;7.132;2022-11-13T13:58:58;20.40;41.90
4107;DHT22;21906;50.812;7.132;2022-11-13T14:01:33;20.20;41.60
4107;DHT22;21906;50.812;7.132;2022-11-13T14:04:25;20.10;42.70
4107;DHT22;21906;50.812;7.132;2022-11-13T14:06:59;19.90;42.80
4107;DHT22;21906;50.812;7.132;2022-11-13T14:09:27;19.60;43.60
4107;DHT22;21906;50.812;7.132;2022-11-13T14:12:02;19.40;44.30
4107;DHT22;21906;50.812;7.132;2022-11-13T14:14:28;19.10;44.40
4107;DHT22;21906;50.812;7.132;2022-11-13T14:16:57;18.80;44.50
4107;DHT22;21906;50.812;7.132;2022-11-13T14:19:25;18.60;44.50
4107;DHT22;21906;50.812;7.132;2022-11-13T14:21:58;18.40;45.30
4107;DHT22;21906;50.812;7.132;2022-11-13T14:24:30;18.20;46.20
4107;DHT22;21906;50.812;7.132;2022-11-13T14:27:02;17.90;47.10
4107;DHT22;21906;50.812;7.132;2022-11-13T14:32:05;17.50;48.20
4107;DHT22;21906;50.812;7.132;2022-11-13T14:34:34;17.60;48.60
4107;DHT22;21906;50.812;7.132;2022-11-13T14:37:17;17.50;48.50
4107;DHT22;21906;50.812;7.132;2022-11-13T14:39:46;17.60;48.30
4107;DHT22;21906;50.812;7.132;2022-11-13T14:42:25;17.50;48.20
4107;DHT22;21906;50.812;7.132;2022-11-13T14:44:52;17.50;47.50
4107;DHT22;21906;50.812;7.132;2022-11-13T14:47:26;17.60;47.10
4107;DHT22;21906;50.812;7.132;2022-11-13T14:49:53;17.60;47.10
4107;DHT22;21906;50.812;7.132;2022-11-13T14:52:24;17.40;47.30
4107;DHT22;21906;50.812;7.132;2022-11-13T14:55:00;17.40;47.60
4107;DHT22;21906;50.812;7.132;2022-11-13T14:57:26;17.50;47.10
4107;DHT22;21906;50.812;7.132;2022-11-13T14:59:52;17.50;46.70
4107;DHT22;21906;50.812;7.132;2022-11-13T15:02:18;17.50;46.70
4107;DHT22;21906;50.812;7.132;2022-11-13T15:04:44;17.20;47.90
4107;DHT22;21906;50.812;7.132;2022-11-13T15:09:44;16.90;50.00
4107;DHT22;21906;50.812;7.132;2022-11-13T15:12:11;16.70;50.90
4107;DHT22;21906;50.812;7.132;2022-11-13T15:14:38;16.50;51.20
4107;DHT22;21906;50.812;7.132;2022-11-13T15:17:09;16.40;50.90
4107;DHT22;21906;50.812;7.132;2022-11-13T15:19:38;16.20;50.30
4107;DHT22;21906;50.812;7.132;2022-11-13T15:22:09;16.10;50.00
4107;DHT22;21906;50.812;7.132;2022-11-13T15:24:35;16.00;50.20
4107;DHT22;21906;50.812;7.132;2022-11-13T15:27:01;15.90;50.50
4107;DHT22;21906;50.812;7.132;2022-11-13T15:29:27;15.80;50.30
4107;DHT22;21906;50.812;7.132;2022-11-13T15:31:52;15.80;50.10
4107;DHT22;21906;50.812;7.132;2022-11-13T15:34:19;15.70;50.60
4107;DHT22;21906;50.812;7.132;2022-11-13T15:36:44;15.60;50.60
4107;DHT22;21906;50.812;7.132;2022-11-13T15:39:11;15.50;51.50
4107;DHT22;21906;50.812;7.132;2022-11-13T15:41:37;15.40;52.40
4107;DHT22;21906;50.812;7.132;2022-11-13T15:44:09;15.20;53.00
4107;DHT22;21906;50.812;7.132;2022-11-13T15:46:35;15.10;53.30
4107;DHT22;21906;50.812;7.132;2022-11-13T15:49:01;14.90;54.00
4107;DHT22;21906;50.812;7.132;2022-11-13T15:51:42;14.80;54.30
4107;DHT22;21906;50.812;7.132;2022-11-13T15:54:30;14.50;54.90
4107;DHT22;21906;50.812;7.132;2022-11-13T15:56:57;14.40;55.50
4107;DHT22;21906;50.812;7.132;2022-11-13T15:59:23;14.10;56.30
4107;DHT22;21906;50.812;7.132;2022-11-13T16:01:48;13.90;57.60
4107;DHT22;21906;50.812;7.132;2022-11-13T16:04:14;13.80;58.00
4107;DHT22;21906;50.812;7.132;2022-11-13T16:06:41;13.70;58.40
4107;DHT22;21906;50.812;7.132;2022-11-13T16:09:14;13.60;58.80
4107;DHT22;21906;50.812;7.132;2022-11-13T16:11:40;13.50;59.40
4107;DHT22;21906;50.812;7.132;2022-11-13T16:14:06;13.40;59.50
4107;DHT22;21906;50.812;7.132;2022-11-13T16:16:38;13.40;59.70
4107;DHT22;21906;50.812;7.132;2022-11-13T16:19:21;13.30;60.30
4107;DHT22;21906;50.812;7.132;2022-11-13T16:21:47;13.20;60.50
4107;DHT22;21906;50.812;7.132;2022-11-13T16:24:13;13.00;61.00
4107;DHT22;21906;50.812;7.132;2022-11-13T16:26:40;12.90;61.20
4107;DHT22;21906;50.812;7.132;2022-11-13T16:29:21;12.90;61.50
4107;DHT22;21906;50.812;7.132;2022-11-13T16:31:47;12.80;61.60
4107;DHT22;21906;50.812;7.132;2022-11-13T16:34:13;12.70;62.10
4107;DHT22;21906;50.812;7.132;2022-11-13T16:36:39;12.60;62.50
4107;DHT22;21906;50.812;7.132;2022-11-13T16:39:05;12.50;62.70
4107;DHT22;21906;50.812;7.132;2022-11-13T16:41:31;12.50;62.70
4107;DHT22;21906;50.812;7.132;2022-11-13T16:43:57;12.40;62.70
4107;DHT22;21906;50.812;7.132;2022-11-13T16:46:29;12.40;63.30
4107;DHT22;21906;50.812;7.132;2022-11-13T16:48:55;12.30;63.40
4107;DHT22;21906;50.812;7.132;2022-11-13T16:51:21;12.20;63.50
4107;DHT22;21906;50.812;7.132;2022-11-13T16:53:47;12.20;63.90
4107;DHT22;21906;50.812;7.132;2022-11-13T16:56:31;12.10;63.70
4107;DHT22;21906;50.812;7.132;2022-11-13T16:58:57;12.00;63.60
4107;DHT22;21906;50.812;7.132;2022-11-13T17:01:23;11.90;63.80
4107;DHT22;21906;50.812;7.132;2022-11-13T17:03:50;11.90;64.20
4107;DHT22;21906;50.812;7.132;2022-11-13T17:06:26;11.90;64.30
4107;DHT22;21906;50.812;7.132;2022-11-13T17:08:53;11.80;64.30
4107;DHT22;21906;50.812;7.132;2022-11-13T17:11:20;11.70;64.30
4107;DHT22;21906;50.812;7.132;2022-11-13T17:14:03;11.70;64.70
4107;DHT22;21906;50.812;7.132;2022-11-13T17:16:30;11.70;65.00
4107;DHT22;21906;50.812;7.132;2022-11-13T17:18:56;11.60;64.90
4107;DHT22;21906;50.812;7.132;2022-11-13T17:21:25;11.60;65.10
4107;DHT22;21906;50.812;7.132;2022-11-13T17:24:01;11.60;65.20
4107;DHT22;21906;50.812;7.132;2022-11-13T17:26:28;11.60;65.20
4107;DHT22;21906;50.812;7.132;2022-11-13T17:28:54;11.50;65.40
4107;DHT22;21906;50.812;7.132;2022-11-13T17:31:20;11.40;65.60
4107;DHT22;21906;50.812;7.132;2022-11-13T17:33:46;11.40;65.60
4107;DHT22;21906;50.812;7.132;2022-11-13T17:36:12;11.40;65.80
4107;DHT22;21906;50.812;7.132;2022-11-13T17:38:38;11.40;65.90
4107;DHT22;21906;50.812;7.132;2022-11-13T17:41:06;11.40;66.00
4107;DHT22;21906;50.812;7.132;2022-11-13T17:43:36;11.40;66.40